sensor_id;sensor_type;location;lat;lon;timestamp;P1;durP1;ratioP1;P2;durP2;ratioP2
26756;SDS011;23848;49.798;10.228;2023-02-28T00:01:26;12.23;;;5.63;;
26756;SDS011;23848;49.798;10.228;2023-02-28T00:03:54;10.90;;;5.72;;
26756;SDS011;23848;49.798;10.228;2023-02-28T00:06:23;8.85;;;4.93;;
26756;SDS011;23848;49.798;10.228;2023-02-28T00:08:52;11.27;;;6.40;;
26756;SDS011;23848;49.798;10.228;2023-02-28T00:11:21;9.68;;;5.63;;
26756;SDS011;23848;49.798;10.228;2023-02-28T00:13:50;8.85;;;5.40;;
26756;SDS011;23848;49.798;10.228;2023-02-28T00:16:19;6.70;;;4.38;;
26756;SDS011;23848;49.798;10.228;2023-02-28T00:18:49;6.10;;;4.07;;
26756;SDS011;23848;49.798;10.228;2023-02-28T00:21:17;6.45;;;4.22;;
26756;SDS011;23848;49.798;10.228;2023-02-28T00:23:46;6.15;;;3.92;;
26756;SDS011;23848;49.798;10.228;2023-02-28T00:26:15;7.05;;;4.30;;
26756;SDS011;23848;49.798;10.228;2023-02-28T00:28:48;7.35;;;4.35;;
26756;SDS011;23848;49.798;10.228;2023-02-28T00:31:18;6.88;;;4.38;;
26756;SDS011;23848;49.798;10.228;2023-02-28T00:33:47;7.70;;;4.65;;
26756;SDS011;23848;49.798;10.228;2023-02-28T00:36:17;7.20;;;4.20;;
26756;SDS011;23848;49.798;10.228;2023-02-28T00:38:45;7.85;;;4.40;;
26756;SDS011;23848;49.798;10.228;2023-02-28T00:41:16;7.95;;;5.05;;
26756;SDS011;23848;49.798;10.228;2023-02-28T00:43:45;8.10;;;5.35;;
26756;SDS011;23848;49.798;10.228;2023-02-28T00:46:15;7.47;;;4.78;;
26756;SDS011;23848;49.798;10.228;2023-02-28T00:48:43;7.95;;;4.47;;
26756;SDS011;23848;49.798;10.228;2023-02-28T00:51:12;7.13;;;5.07;;
26756;SDS011;23848;49.798;10.228;2023-02-28T00:53:40;11.15;;;6.55;;
26756;SDS011;23848;49.798;10.228;2023-02-28T00:56:09;10.02;;;5.72;;
26756;SDS011;23848;49.798;10.228;2023-02-28T00:58:37;8.73;;;4.60;;
26756;SDS011;23848;49.798;10.228;2023-02-28T01:01:05;8.73;;;5.15;;
26756;SDS011;23848;49.798;10.228;2023-02-28T01:03:35;7.28;;;4.22;;
26756;SDS011;23848;49.798;10.228;2023-02-28T01:06:04;7.82;;;5.65;;
26756;SDS011;23848;49.798;10.228;2023-02-28T01:08:33;11.27;;;6.35;;
26756;SDS011;23848;49.798;10.228;2023-02-28T01:11:06;11.30;;;6.63;;
26756;SDS011;23848;49.798;10.228;2023-02-28T01:13:35;8.20;;;5.47;;
26756;SDS011;23848;49.798;10.228;2023-02-28T01:16:04;9.55;;;5.88;;
26756;SDS011;23848;49.798;10.228;2023-02-28T01:18:32;8.73;;;5.70;;
26756;SDS011;23848;49.798;10.228;2023-02-28T01:21:04;8.85;;;5.20;;
26756;SDS011;23848;49.798;10.228;2023-02-28T01:23:33;9.18;;;4.85;;
26756;SDS011;23848;49.798;10.228;2023-02-28T01:26:03;8.05;;;5.32;;
26756;SDS011;23848;49.798;10.228;2023-02-28T01:28:32;8.48;;;5.28;;
26756;SDS011;23848;49.798;10.228;2023-02-28T01:31:01;8.38;;;4.63;;
26756;SDS011;23848;49.798;10.228;2023-02-28T01:33:29;9.18;;;5.03;;
26756;SDS011;23848;49.798;10.228;2023-02-28T01:35:58;8.52;;;5.05;;
26756;SDS011;23848;49.798;10.228;2023-02-28T01:38:28;8.20;;;5.10;;
26756;SDS011;23848;49.798;10.228;2023-02-28T01:40:57;9.00;;;4.78;;
26756;SDS011;23848;49.798;10.228;2023-02-28T01:43:26;8.90;;;5.28;;
26756;SDS011;23848;49.798;10.228;2023-02-28T01:45:55;11.10;;;5.75;;
26756;SDS011;23848;49.798;10.228;2023-02-28T01:48:24;7.30;;;4.43;;
26756;SDS011;23848;49.798;10.228;2023-02-28T01:50:53;8.68;;;4.28;;
26756;SDS011;23848;49.798;10.228;2023-02-28T01:53:24;8.85;;;5.13;;
26756;SDS011;23848;49.798;10.228;2023-02-28T01:55:56;10.10;;;4.95;;
26756;SDS011;23848;49.798;10.228;2023-02-28T01:58:24;9.50;;;5.53;;
26756;SDS011;23848;49.798;10.228;2023-02-28T02:00:53;7.97;;;4.60;;
26756;SDS011;23848;49.798;10.228;2023-02-28T02:03:21;7.53;;;4.68;;
26756;SDS011;23848;49.798;10.228;2023-02-28T02:05:49;8.50;;;4.50;;
26756;SDS011;23848;49.798;10.228;2023-02-28T02:08:19;7.80;;;4.60;;
26756;SDS011;23848;49.798;10.228;2023-02-28T02:10:48;7.35;;;4.13;;
26756;SDS011;23848;49.798;10.228;2023-02-28T02:13:43;7.63;;;4.53;;
26756;SDS011;23848;49.798;10.228;2023-02-28T02:16:18;6.57;;;4.15;;
26756;SDS011;23848;49.798;10.228;2023-02-28T02:18:52;6.90;;;4.63;;
26756;SDS011;23848;49.798;10.228;2023-02-28T02:21:33;5.93;;;3.97;;
26756;SDS011;23848;49.798;10.228;2023-02-28T02:24:05;7.47;;;4.20;;
26756;SDS011;23848;49.798;10.228;2023-02-28T02:26:44;6.78;;;4.07;;
26756;SDS011;23848;49.798;10.228;2023-02-28T02:32:10;7.10;;;4.50;;
26756;SDS011;23848;49.798;10.228;2023-02-28T02:34:52;6.80;;;4.60;;
26756;SDS011;23848;49.798;10.228;2023-02-28T02:37:27;9.23;;;4.63;;
26756;SDS011;23848;49.798;10.228;2023-02-28T02:39:59;7.13;;;4.20;;
26756;SDS011;23848;49.798;10.228;2023-02-28T02:42:31;7.68;;;3.97;;
26756;SDS011;23848;49.798;10.228;2023-02-28T02:45:12;6.78;;;3.92;;
26756;SDS011;23848;49.798;10.228;2023-02-28T02:47:45;7.65;;;3.92;;
26756;SDS011;23848;49.798;10.228;2023-02-28T02:50:17;6.65;;;4.10;;
26756;SDS011;23848;49.798;10.228;2023-02-28T02:52:48;7.63;;;4.18;;
26756;SDS011;23848;49.798;10.228;2023-02-28T02:55:18;9.25;;;4.15;;
26756;SDS011;23848;49.798;10.228;2023-02-28T02:57:49;8.07;;;4.47;;
26756;SDS011;23848;49.798;10.228;2023-02-28T03:00:20;7.13;;;4.38;;
26756;SDS011;23848;49.798;10.228;2023-02-28T03:02:51;8.15;;;4.80;;
26756;SDS011;23848;49.798;10.228;2023-02-28T03:05:22;8.25;;;5.03;;
26756;SDS011;23848;49.798;10.228;2023-02-28T03:07:51;5.90;;;4.10;;
26756;SDS011;23848;49.798;10.228;2023-02-28T03:10:27;6.88;;;4.38;;
26756;SDS011;23848;49.798;10.228;2023-02-28T03:12:58;7.40;;;4.45;;
26756;SDS011;23848;49.798;10.228;2023-02-28T03:15:30;6.80;;;4.18;;
26756;SDS011;23848;49.798;10.228;2023-02-28T03:18:01;7.20;;;4.68;;
26756;SDS011;23848;49.798;10.228;2023-02-28T03:20:36;7.47;;;4.53;;
26756;SDS011;23848;49.798;10.228;2023-02-28T03:23:13;7.57;;;4.35;;
26756;SDS011;23848;49.798;10.228;2023-02-28T03:25:50;8.35;;;4.55;;
26756;SDS011;23848;49.798;10.228;2023-02-28T03:28:22;8.52;;;4.35;;
26756;SDS011;23848;49.798;10.228;2023-02-28T03:30:52;7.40;;;4.57;;
26756;SDS011;23848;49.798;10.228;2023-02-28T03:33:23;7.63;;;4.95;;
26756;SDS011;23848;49.798;10.228;2023-02-28T03:35:55;7.75;;;5.15;;
26756;SDS011;23848;49.798;10.228;2023-02-28T03:38:27;7.70;;;4.57;;
26756;SDS011;23848;49.798;10.228;2023-02-28T03:40:57;8.40;;;5.22;;
26756;SDS011;23848;49.798;10.228;2023-02-28T03:43:28;12.07;;;6.20;;
26756;SDS011;23848;49.798;10.228;2023-02-28T03:45:57;12.10;;;5.68;;
26756;SDS011;23848;49.798;10.228;2023-02-28T03:48:30;9.52;;;5.63;;
26756;SDS011;23848;49.798;10.228;2023-02-28T03:51:01;7.50;;;4.45;;
26756;SDS011;23848;49.798;10.228;2023-02-28T03:53:30;7.03;;;5.00;;
26756;SDS011;23848;49.798;10.228;2023-02-28T03:56:01;7.18;;;4.43;;
26756;SDS011;23848;49.798;10.228;2023-02-28T03:58:32;7.85;;;5.22;;
26756;SDS011;23848;49.798;10.228;2023-02-28T04:01:04;7.32;;;5.15;;
26756;SDS011;23848;49.798;10.228;2023-02-28T04:03:35;8.48;;;4.40;;
26756;SDS011;23848;49.798;10.228;2023-02-28T04:06:06;9.07;;;5.32;;
26756;SDS011;23848;49.798;10.228;2023-02-28T04:08:35;8.20;;;4.80;;
26756;SDS011;23848;49.798;10.228;2023-02-28T04:11:04;6.43;;;3.60;;
26756;SDS011;23848;49.798;10.228;2023-02-28T04:13:34;7.22;;;4.68;;
26756;SDS011;23848;49.798;10.228;2023-02-28T04:16:06;8.93;;;4.45;;
26756;SDS011;23848;49.798;10.228;2023-02-28T04:18:46;8.32;;;4.93;;
26756;SDS011;23848;49.798;10.228;2023-02-28T04:21:16;8.75;;;5.35;;
26756;SDS011;23848;49.798;10.228;2023-02-28T04:23:47;8.07;;;4.50;;
26756;SDS011;23848;49.798;10.228;2023-02-28T04:26:15;9.95;;;5.22;;
26756;SDS011;23848;49.798;10.228;2023-02-28T04:28:43;8.30;;;5.22;;
26756;SDS011;23848;49.798;10.228;2023-02-28T04:31:12;9.43;;;5.35;;
26756;SDS011;23848;49.798;10.228;2023-02-28T04:33:40;8.77;;;5.90;;
26756;SDS011;23848;49.798;10.228;2023-02-28T04:36:09;8.90;;;5.43;;
26756;SDS011;23848;49.798;10.228;2023-02-28T04:38:38;9.65;;;5.57;;
26756;SDS011;23848;49.798;10.228;2023-02-28T04:41:07;8.68;;;4.40;;
26756;SDS011;23848;49.798;10.228;2023-02-28T04:43:35;7.78;;;4.75;;
26756;SDS011;23848;49.798;10.228;2023-02-28T04:46:04;8.65;;;5.00;;
26756;SDS011;23848;49.798;10.228;2023-02-28T04:48:33;7.63;;;4.80;;
26756;SDS011;23848;49.798;10.228;2023-02-28T04:51:02;9.20;;;4.93;;
26756;SDS011;23848;49.798;10.228;2023-02-28T04:53:31;6.18;;;4.32;;
26756;SDS011;23848;49.798;10.228;2023-02-28T04:56:00;10.27;;;5.10;;
26756;SDS011;23848;49.798;10.228;2023-02-28T04:58:29;7.45;;;4.63;;
26756;SDS011;23848;49.798;10.228;2023-02-28T05:01:01;8.90;;;5.40;;
26756;SDS011;23848;49.798;10.228;2023-02-28T05:03:30;9.30;;;5.25;;
26756;SDS011;23848;49.798;10.228;2023-02-28T05:05:58;7.75;;;5.15;;
26756;SDS011;23848;49.798;10.228;2023-02-28T05:08:27;8.20;;;4.70;;
26756;SDS011;23848;49.798;10.228;2023-02-28T05:11:02;8.70;;;5.00;;
26756;SDS011;23848;49.798;10.228;2023-02-28T05:13:31;7.57;;;4.70;;
26756;SDS011;23848;49.798;10.228;2023-02-28T05:15:59;8.02;;;4.80;;
26756;SDS011;23848;49.798;10.228;2023-02-28T05:18:32;9.50;;;4.85;;
26756;SDS011;23848;49.798;10.228;2023-02-28T05:21:00;9.45;;;5.57;;
26756;SDS011;23848;49.798;10.228;2023-02-28T05:23:29;9.15;;;5.78;;
26756;SDS011;23848;49.798;10.228;2023-02-28T05:25:57;7.43;;;5.35;;
26756;SDS011;23848;49.798;10.228;2023-02-28T05:28:27;16.15;;;8.52;;
26756;SDS011;23848;49.798;10.228;2023-02-28T05:30:55;11.00;;;6.90;;
26756;SDS011;23848;49.798;10.228;2023-02-28T05:33:24;12.85;;;6.55;;
26756;SDS011;23848;49.798;10.228;2023-02-28T05:35:52;12.40;;;6.53;;
26756;SDS011;23848;49.798;10.228;2023-02-28T05:38:20;10.65;;;6.13;;
26756;SDS011;23848;49.798;10.228;2023-02-28T05:40:53;9.95;;;6.00;;
26756;SDS011;23848;49.798;10.228;2023-02-28T05:43:21;11.32;;;6.90;;
26756;SDS011;23848;49.798;10.228;2023-02-28T05:45:51;10.60;;;6.15;;
26756;SDS011;23848;49.798;10.228;2023-02-28T05:48:19;10.18;;;6.10;;
26756;SDS011;23848;49.798;10.228;2023-02-28T05:50:48;10.25;;;5.88;;
26756;SDS011;23848;49.798;10.228;2023-02-28T05:53:16;9.63;;;5.90;;
26756;SDS011;23848;49.798;10.228;2023-02-28T05:55:44;8.43;;;5.45;;
26756;SDS011;23848;49.798;10.228;2023-02-28T05:58:13;9.27;;;5.20;;
26756;SDS011;23848;49.798;10.228;2023-02-28T06:00:41;9.48;;;5.60;;
26756;SDS011;23848;49.798;10.228;2023-02-28T06:03:10;8.52;;;5.60;;
26756;SDS011;23848;49.798;10.228;2023-02-28T06:05:39;8.38;;;5.18;;
26756;SDS011;23848;49.798;10.228;2023-02-28T06:08:07;8.15;;;5.28;;
26756;SDS011;23848;49.798;10.228;2023-02-28T06:10:36;8.27;;;5.43;;
26756;SDS011;23848;49.798;10.228;2023-02-28T06:13:05;10.38;;;5.90;;
26756;SDS011;23848;49.798;10.228;2023-02-28T06:15:33;10.10;;;5.30;;
26756;SDS011;23848;49.798;10.228;2023-02-28T06:18:03;8.40;;;5.53;;
26756;SDS011;23848;49.798;10.228;2023-02-28T06:20:33;8.70;;;5.60;;
26756;SDS011;23848;49.798;10.228;2023-02-28T06:23:02;11.73;;;5.80;;
26756;SDS011;23848;49.798;10.228;2023-02-28T06:25:31;8.15;;;5.05;;
26756;SDS011;23848;49.798;10.228;2023-02-28T06:27:59;10.50;;;5.38;;
26756;SDS011;23848;49.798;10.228;2023-02-28T06:30:28;11.40;;;6.07;;
26756;SDS011;23848;49.798;10.228;2023-02-28T06:32:57;10.07;;;6.15;;
26756;SDS011;23848;49.798;10.228;2023-02-28T06:35:25;10.95;;;6.57;;
26756;SDS011;23848;49.798;10.228;2023-02-28T06:37:55;11.50;;;6.53;;
26756;SDS011;23848;49.798;10.228;2023-02-28T06:40:23;14.38;;;8.30;;
26756;SDS011;23848;49.798;10.228;2023-02-28T06:42:52;14.20;;;8.93;;
26756;SDS011;23848;49.798;10.228;2023-02-28T06:45:21;10.95;;;7.13;;
26756;SDS011;23848;49.798;10.228;2023-02-28T06:47:49;12.25;;;7.93;;
26756;SDS011;23848;49.798;10.228;2023-02-28T06:50:18;14.48;;;7.90;;
26756;SDS011;23848;49.798;10.228;2023-02-28T06:52:46;11.25;;;6.65;;
26756;SDS011;23848;49.798;10.228;2023-02-28T06:55:21;13.48;;;7.32;;
26756;SDS011;23848;49.798;10.228;2023-02-28T06:57:50;15.52;;;8.52;;
26756;SDS011;23848;49.798;10.228;2023-02-28T07:00:19;18.35;;;9.30;;
26756;SDS011;23848;49.798;10.228;2023-02-28T07:02:48;14.98;;;7.10;;
26756;SDS011;23848;49.798;10.228;2023-02-28T07:05:16;10.30;;;6.55;;
26756;SDS011;23848;49.798;10.228;2023-02-28T07:07:44;12.15;;;6.95;;
26756;SDS011;23848;49.798;10.228;2023-02-28T07:10:13;9.20;;;6.18;;
26756;SDS011;23848;49.798;10.228;2023-02-28T07:12:46;7.70;;;5.68;;
26756;SDS011;23848;49.798;10.228;2023-02-28T07:15:15;9.90;;;5.82;;
26756;SDS011;23848;49.798;10.228;2023-02-28T07:17:43;8.80;;;6.32;;
26756;SDS011;23848;49.798;10.228;2023-02-28T07:20:12;11.20;;;6.30;;
26756;SDS011;23848;49.798;10.228;2023-02-28T07:22:40;10.32;;;6.65;;
26756;SDS011;23848;49.798;10.228;2023-02-28T07:25:09;9.82;;;6.13;;
26756;SDS011;23848;49.798;10.228;2023-02-28T07:27:37;10.27;;;6.68;;
26756;SDS011;23848;49.798;10.228;2023-02-28T07:30:09;11.00;;;5.90;;
26756;SDS011;23848;49.798;10.228;2023-02-28T07:32:38;12.80;;;6.72;;
26756;SDS011;23848;49.798;10.228;2023-02-28T07:35:09;9.40;;;6.20;;
26756;SDS011;23848;49.798;10.228;2023-02-28T07:37:38;12.10;;;6.57;;
26756;SDS011;23848;49.798;10.228;2023-02-28T07:40:09;11.75;;;6.90;;
26756;SDS011;23848;49.798;10.228;2023-02-28T07:42:38;10.82;;;6.85;;
26756;SDS011;23848;49.798;10.228;2023-02-28T07:45:09;11.18;;;6.97;;
26756;SDS011;23848;49.798;10.228;2023-02-28T07:47:38;11.02;;;7.15;;
26756;SDS011;23848;49.798;10.228;2023-02-28T07:50:07;13.57;;;6.88;;
26756;SDS011;23848;49.798;10.228;2023-02-28T07:52:36;11.85;;;5.88;;
26756;SDS011;23848;49.798;10.228;2023-02-28T07:55:05;9.82;;;6.63;;
26756;SDS011;23848;49.798;10.228;2023-02-28T07:57:33;11.60;;;6.47;;
26756;SDS011;23848;49.798;10.228;2023-02-28T08:00:02;9.35;;;6.22;;
26756;SDS011;23848;49.798;10.228;2023-02-28T08:02:32;11.95;;;7.03;;
26756;SDS011;23848;49.798;10.228;2023-02-28T08:05:00;12.13;;;7.68;;
26756;SDS011;23848;49.798;10.228;2023-02-28T08:07:29;12.48;;;7.90;;
26756;SDS011;23848;49.798;10.228;2023-02-28T08:09:58;9.20;;;6.05;;
26756;SDS011;23848;49.798;10.228;2023-02-28T08:12:27;9.45;;;6.40;;
26756;SDS011;23848;49.798;10.228;2023-02-28T08:14:55;10.43;;;6.43;;
26756;SDS011;23848;49.798;10.228;2023-02-28T08:17:23;10.13;;;6.38;;
26756;SDS011;23848;49.798;10.228;2023-02-28T08:19:53;10.73;;;6.40;;
26756;SDS011;23848;49.798;10.228;2023-02-28T08:22:21;10.23;;;6.38;;
26756;SDS011;23848;49.798;10.228;2023-02-28T08:24:50;10.13;;;6.40;;
26756;SDS011;23848;49.798;10.228;2023-02-28T08:27:18;10.93;;;6.60;;
26756;SDS011;23848;49.798;10.228;2023-02-28T08:29:47;12.05;;;6.85;;
26756;SDS011;23848;49.798;10.228;2023-02-28T08:32:15;9.57;;;5.88;;
26756;SDS011;23848;49.798;10.228;2023-02-28T08:34:56;9.05;;;6.07;;
26756;SDS011;23848;49.798;10.228;2023-02-28T08:37:25;10.23;;;6.15;;
26756;SDS011;23848;49.798;10.228;2023-02-28T08:39:54;10.45;;;6.47;;
26756;SDS011;23848;49.798;10.228;2023-02-28T08:42:22;8.77;;;6.18;;
26756;SDS011;23848;49.798;10.228;2023-02-28T08:44:50;8.88;;;6.20;;
26756;SDS011;23848;49.798;10.228;2023-02-28T08:47:19;10.23;;;6.25;;
26756;SDS011;23848;49.798;10.228;2023-02-28T08:49:47;10.93;;;6.40;;
26756;SDS011;23848;49.798;10.228;2023-02-28T08:52:17;10.55;;;6.35;;
26756;SDS011;23848;49.798;10.228;2023-02-28T08:54:46;9.50;;;5.88;;
26756;SDS011;23848;49.798;10.228;2023-02-28T08:57:14;11.75;;;6.43;;
26756;SDS011;23848;49.798;10.228;2023-02-28T08:59:42;9.95;;;6.40;;
26756;SDS011;23848;49.798;10.228;2023-02-28T09:02:12;11.25;;;6.78;;
26756;SDS011;23848;49.798;10.228;2023-02-28T09:04:40;9.10;;;6.53;;
26756;SDS011;23848;49.798;10.228;2023-02-28T09:07:11;9.18;;;6.00;;
26756;SDS011;23848;49.798;10.228;2023-02-28T09:09:41;11.20;;;6.38;;
26756;SDS011;23848;49.798;10.228;2023-02-28T09:12:20;9.85;;;6.57;;
26756;SDS011;23848;49.798;10.228;2023-02-28T09:14:48;9.80;;;6.00;;
26756;SDS011;23848;49.798;10.228;2023-02-28T09:17:17;12.25;;;6.55;;
26756;SDS011;23848;49.798;10.228;2023-02-28T09:19:47;13.15;;;8.07;;
26756;SDS011;23848;49.798;10.228;2023-02-28T09:22:16;11.43;;;6.88;;
26756;SDS011;23848;49.798;10.228;2023-02-28T09:24:46;10.18;;;6.65;;
26756;SDS011;23848;49.798;10.228;2023-02-28T09:27:14;10.07;;;6.78;;
26756;SDS011;23848;49.798;10.228;2023-02-28T09:29:43;10.10;;;6.78;;
26756;SDS011;23848;49.798;10.228;2023-02-28T09:32:11;10.80;;;6.63;;
26756;SDS011;23848;49.798;10.228;2023-02-28T09:34:40;12.15;;;7.25;;
26756;SDS011;23848;49.798;10.228;2023-02-28T09:37:08;9.32;;;6.90;;
26756;SDS011;23848;49.798;10.228;2023-02-28T09:39:36;10.25;;;6.53;;
26756;SDS011;23848;49.798;10.228;2023-02-28T09:42:11;11.80;;;6.22;;
26756;SDS011;23848;49.798;10.228;2023-02-28T09:44:42;9.50;;;6.70;;
26756;SDS011;23848;49.798;10.228;2023-02-28T09:47:12;10.90;;;6.85;;
26756;SDS011;23848;49.798;10.228;2023-02-28T09:49:43;12.70;;;6.82;;
26756;SDS011;23848;49.798;10.228;2023-02-28T09:52:14;10.63;;;6.85;;
26756;SDS011;23848;49.798;10.228;2023-02-28T09:54:43;12.38;;;6.85;;
26756;SDS011;23848;49.798;10.228;2023-02-28T09:57:15;9.23;;;6.65;;
26756;SDS011;23848;49.798;10.228;2023-02-28T09:59:59;9.70;;;7.05;;
26756;SDS011;23848;49.798;10.228;2023-02-28T10:02:38;10.85;;;7.38;;
26756;SDS011;23848;49.798;10.228;2023-02-28T10:05:09;10.85;;;7.60;;
26756;SDS011;23848;49.798;10.228;2023-02-28T10:07:48;10.45;;;6.93;;
26756;SDS011;23848;49.798;10.228;2023-02-28T10:10:21;11.13;;;7.22;;
26756;SDS011;23848;49.798;10.228;2023-02-28T10:12:52;12.68;;;7.70;;
26756;SDS011;23848;49.798;10.228;2023-02-28T10:15:21;11.95;;;6.90;;
26756;SDS011;23848;49.798;10.228;2023-02-28T10:17:54;10.48;;;6.72;;
26756;SDS011;23848;49.798;10.228;2023-02-28T10:20:43;9.15;;;6.72;;
26756;SDS011;23848;49.798;10.228;2023-02-28T10:23:13;8.60;;;6.63;;
26756;SDS011;23848;49.798;10.228;2023-02-28T10:25:45;10.70;;;6.97;;
26756;SDS011;23848;49.798;10.228;2023-02-28T10:28:17;10.68;;;7.05;;
26756;SDS011;23848;49.798;10.228;2023-02-28T10:30:47;11.63;;;7.38;;
26756;SDS011;23848;49.798;10.228;2023-02-28T10:33:20;11.05;;;7.43;;
26756;SDS011;23848;49.798;10.228;2023-02-28T10:35:50;9.85;;;7.18;;
26756;SDS011;23848;49.798;10.228;2023-02-28T10:38:19;11.35;;;7.88;;
26756;SDS011;23848;49.798;10.228;2023-02-28T10:40:48;9.80;;;7.30;;
26756;SDS011;23848;49.798;10.228;2023-02-28T10:43:21;10.95;;;7.13;;
26756;SDS011;23848;49.798;10.228;2023-02-28T10:45:52;9.88;;;7.30;;
26756;SDS011;23848;49.798;10.228;2023-02-28T10:48:27;10.30;;;7.50;;
26756;SDS011;23848;49.798;10.228;2023-02-28T10:50:56;10.27;;;6.90;;
26756;SDS011;23848;49.798;10.228;2023-02-28T10:53:30;10.27;;;7.18;;
26756;SDS011;23848;49.798;10.228;2023-02-28T10:56:04;10.27;;;7.40;;
26756;SDS011;23848;49.798;10.228;2023-02-28T10:58:44;10.30;;;7.70;;
26756;SDS011;23848;49.798;10.228;2023-02-28T11:01:14;11.48;;;7.43;;
26756;SDS011;23848;49.798;10.228;2023-02-28T11:03:43;14.35;;;8.90;;
26756;SDS011;23848;49.798;10.228;2023-02-28T11:06:18;13.85;;;9.10;;
26756;SDS011;23848;49.798;10.228;2023-02-28T11:08:48;15.07;;;9.07;;
26756;SDS011;23848;49.798;10.228;2023-02-28T11:11:17;13.90;;;9.85;;
26756;SDS011;23848;49.798;10.228;2023-02-28T11:13:47;11.98;;;7.90;;
26756;SDS011;23848;49.798;10.228;2023-02-28T11:16:18;10.52;;;7.40;;
26756;SDS011;23848;49.798;10.228;2023-02-28T11:18:47;11.93;;;8.07;;
26756;SDS011;23848;49.798;10.228;2023-02-28T11:21:21;9.23;;;7.15;;
26756;SDS011;23848;49.798;10.228;2023-02-28T11:23:51;12.93;;;8.25;;
26756;SDS011;23848;49.798;10.228;2023-02-28T11:26:36;11.52;;;7.22;;
26756;SDS011;23848;49.798;10.228;2023-02-28T11:29:11;10.60;;;7.97;;
26756;SDS011;23848;49.798;10.228;2023-02-28T11:31:40;10.50;;;7.82;;
26756;SDS011;23848;49.798;10.228;2023-02-28T11:34:22;13.48;;;7.60;;
26756;SDS011;23848;49.798;10.228;2023-02-28T11:36:52;10.40;;;7.35;;
26756;SDS011;23848;49.798;10.228;2023-02-28T11:39:22;13.10;;;7.90;;
26756;SDS011;23848;49.798;10.228;2023-02-28T11:41:55;11.45;;;7.82;;
26756;SDS011;23848;49.798;10.228;2023-02-28T11:44:32;10.55;;;7.22;;
26756;SDS011;23848;49.798;10.228;2023-02-28T11:47:06;11.25;;;7.28;;
26756;SDS011;23848;49.798;10.228;2023-02-28T11:49:41;11.60;;;7.47;;
26756;SDS011;23848;49.798;10.228;2023-02-28T11:52:20;12.27;;;8.20;;
26756;SDS011;23848;49.798;10.228;2023-02-28T11:54:52;10.38;;;7.18;;
26756;SDS011;23848;49.798;10.228;2023-02-28T11:57:30;9.98;;;7.68;;
26756;SDS011;23848;49.798;10.228;2023-02-28T12:00:04;11.18;;;7.13;;
26756;SDS011;23848;49.798;10.228;2023-02-28T12:02:36;11.18;;;7.47;;
26756;SDS011;23848;49.798;10.228;2023-02-28T12:05:18;11.90;;;7.97;;
26756;SDS011;23848;49.798;10.228;2023-02-28T12:07:53;10.38;;;7.75;;
26756;SDS011;23848;49.798;10.228;2023-02-28T12:10:24;12.60;;;8.40;;
26756;SDS011;23848;49.798;10.228;2023-02-28T12:12:57;9.80;;;7.63;;
26756;SDS011;23848;49.798;10.228;2023-02-28T12:15:30;11.20;;;7.57;;
26756;SDS011;23848;49.798;10.228;2023-02-28T12:20:30;11.23;;;7.95;;
26756;SDS011;23848;49.798;10.228;2023-02-28T12:23:08;10.07;;;7.17;;
26756;SDS011;23848;49.798;10.228;2023-02-28T12:25:39;11.05;;;8.05;;
26756;SDS011;23848;49.798;10.228;2023-02-28T12:28:09;11.63;;;8.00;;
26756;SDS011;23848;49.798;10.228;2023-02-28T12:30:43;9.65;;;7.47;;
26756;SDS011;23848;49.798;10.228;2023-02-28T12:33:16;11.32;;;8.20;;
26756;SDS011;23848;49.798;10.228;2023-02-28T12:35:47;10.65;;;7.43;;
26756;SDS011;23848;49.798;10.228;2023-02-28T12:38:17;11.57;;;7.85;;
26756;SDS011;23848;49.798;10.228;2023-02-28T12:40:47;12.95;;;8.13;;
26756;SDS011;23848;49.798;10.228;2023-02-28T12:43:17;10.30;;;7.65;;
26756;SDS011;23848;49.798;10.228;2023-02-28T12:45:48;11.23;;;8.27;;
26756;SDS011;23848;49.798;10.228;2023-02-28T12:48:20;11.63;;;8.20;;
26756;SDS011;23848;49.798;10.228;2023-02-28T12:50:50;12.63;;;7.57;;
26756;SDS011;23848;49.798;10.228;2023-02-28T12:53:21;12.55;;;8.05;;
26756;SDS011;23848;49.798;10.228;2023-02-28T12:55:55;10.35;;;7.53;;
26756;SDS011;23848;49.798;10.228;2023-02-28T12:58:27;10.37;;;8.10;;
26756;SDS011;23848;49.798;10.228;2023-02-28T13:03:54;10.40;;;7.50;;
26756;SDS011;23848;49.798;10.228;2023-02-28T13:09:11;9.20;;;7.45;;
26756;SDS011;23848;49.798;10.228;2023-02-28T13:11:43;10.55;;;8.00;;
26756;SDS011;23848;49.798;10.228;2023-02-28T13:14:26;12.40;;;8.82;;
26756;SDS011;23848;49.798;10.228;2023-02-28T13:17:01;12.68;;;8.65;;
26756;SDS011;23848;49.798;10.228;2023-02-28T13:19:32;11.02;;;7.90;;
26756;SDS011;23848;49.798;10.228;2023-02-28T13:22:04;11.77;;;7.80;;
26756;SDS011;23848;49.798;10.228;2023-02-28T13:24:46;10.73;;;7.72;;
26756;SDS011;23848;49.798;10.228;2023-02-28T13:27:22;12.48;;;9.10;;
26756;SDS011;23848;49.798;10.228;2023-02-28T13:29:51;11.45;;;7.70;;
26756;SDS011;23848;49.798;10.228;2023-02-28T13:32:31;12.98;;;8.32;;
26756;SDS011;23848;49.798;10.228;2023-02-28T13:35:14;11.68;;;7.75;;
26756;SDS011;23848;49.798;10.228;2023-02-28T13:37:46;11.77;;;7.78;;
26756;SDS011;23848;49.798;10.228;2023-02-28T13:40:27;11.32;;;8.13;;
26756;SDS011;23848;49.798;10.228;2023-02-28T13:42:56;12.68;;;8.13;;
26756;SDS011;23848;49.798;10.228;2023-02-28T13:45:27;10.48;;;7.38;;
26756;SDS011;23848;49.798;10.228;2023-02-28T13:47:58;11.50;;;7.85;;
26756;SDS011;23848;49.798;10.228;2023-02-28T13:50:30;9.60;;;7.35;;
26756;SDS011;23848;49.798;10.228;2023-02-28T13:53:14;12.07;;;8.95;;
26756;SDS011;23848;49.798;10.228;2023-02-28T13:55:48;14.15;;;8.68;;
26756;SDS011;23848;49.798;10.228;2023-02-28T13:58:25;11.63;;;7.85;;
26756;SDS011;23848;49.798;10.228;2023-02-28T14:01:07;11.30;;;8.00;;
26756;SDS011;23848;49.798;10.228;2023-02-28T14:03:46;12.50;;;8.05;;
26756;SDS011;23848;49.798;10.228;2023-02-28T14:06:23;11.95;;;7.95;;
26756;SDS011;23848;49.798;10.228;2023-02-28T14:08:54;10.52;;;7.47;;
26756;SDS011;23848;49.798;10.228;2023-02-28T14:11:24;10.55;;;7.65;;
26756;SDS011;23848;49.798;10.228;2023-02-28T14:13:53;14.02;;;8.13;;
26756;SDS011;23848;49.798;10.228;2023-02-28T14:16:22;10.40;;;7.38;;
26756;SDS011;23848;49.798;10.228;2023-02-28T14:18:57;11.82;;;8.35;;
26756;SDS011;23848;49.798;10.228;2023-02-28T14:21:29;12.30;;;7.50;;
26756;SDS011;23848;49.798;10.228;2023-02-28T14:26:58;10.45;;;7.00;;
26756;SDS011;23848;49.798;10.228;2023-02-28T14:29:42;11.73;;;7.88;;
26756;SDS011;23848;49.798;10.228;2023-02-28T14:32:13;10.80;;;7.72;;
26756;SDS011;23848;49.798;10.228;2023-02-28T14:34:44;10.35;;;7.90;;
26756;SDS011;23848;49.798;10.228;2023-02-28T14:37:19;10.27;;;7.10;;
26756;SDS011;23848;49.798;10.228;2023-02-28T14:39:48;10.70;;;7.68;;
26756;SDS011;23848;49.798;10.228;2023-02-28T14:42:30;9.45;;;6.78;;
26756;SDS011;23848;49.798;10.228;2023-02-28T14:44:59;8.73;;;6.47;;
26756;SDS011;23848;49.798;10.228;2023-02-28T14:47:30;9.93;;;7.28;;
26756;SDS011;23848;49.798;10.228;2023-02-28T14:49:59;10.88;;;7.40;;
26756;SDS011;23848;49.798;10.228;2023-02-28T14:52:31;10.68;;;7.72;;
26756;SDS011;23848;49.798;10.228;2023-02-28T14:55:01;11.43;;;7.55;;
26756;SDS011;23848;49.798;10.228;2023-02-28T14:57:30;11.88;;;7.25;;
26756;SDS011;23848;49.798;10.228;2023-02-28T15:00:00;11.15;;;7.40;;
26756;SDS011;23848;49.798;10.228;2023-02-28T15:02:31;9.57;;;6.88;;
26756;SDS011;23848;49.798;10.228;2023-02-28T15:05:02;9.77;;;7.00;;